sensor_id;sensor_type;location;lat;lon;timestamp;P1;durP1;ratioP1;P2;durP2;ratioP2
29814;SDS011;16708;50.426;7.664;2023-09-19T00:02:30;5.40;;;2.70;;
29814;SDS011;16708;50.426;7.664;2023-09-19T00:07:27;4.60;;;2.80;;
29814;SDS011;16708;50.426;7.664;2023-09-19T00:12:19;6.10;;;3.10;;
29814;SDS011;16708;50.426;7.664;2023-09-19T00:17:13;5.50;;;3.20;;
29814;SDS011;16708;50.426;7.664;2023-09-19T00:22:07;7.20;;;3.40;;
29814;SDS011;16708;50.426;7.664;2023-09-19T00:27:01;6.40;;;3.90;;
29814;SDS011;16708;50.426;7.664;2023-09-19T00:31:55;6.60;;;3.70;;
29814;SDS011;16708;50.426;7.664;2023-09-19T00:36:50;8.80;;;4.40;;
29814;SDS011;16708;50.426;7.664;2023-09-19T00:41:44;8.10;;;4.20;;
29814;SDS011;16708;50.426;7.664;2023-09-19T00:46:40;9.20;;;4.40;;
29814;SDS011;16708;50.426;7.664;2023-09-19T00:51:33;7.00;;;3.90;;
29814;SDS011;16708;50.426;7.664;2023-09-19T00:56:29;9.10;;;4.50;;
29814;SDS011;16708;50.426;7.664;2023-09-19T01:01:21;10.10;;;4.80;;
29814;SDS011;16708;50.426;7.664;2023-09-19T01:06:15;9.00;;;4.80;;
29814;SDS011;16708;50.426;7.664;2023-09-19T01:11:10;13.40;;;5.50;;
29814;SDS011;16708;50.426;7.664;2023-09-19T01:30:47;8.40;;;4.10;;
29814;SDS011;16708;50.426;7.664;2023-09-19T01:35:42;8.90;;;4.20;;
29814;SDS011;16708;50.426;7.664;2023-09-19T01:40:35;11.20;;;4.10;;
29814;SDS011;16708;50.426;7.664;2023-09-19T01:50:24;7.20;;;3.30;;
29814;SDS011;16708;50.426;7.664;2023-09-19T01:55:19;9.30;;;3.10;;
29814;SDS011;16708;50.426;7.664;2023-09-19T02:00:13;6.10;;;2.70;;
29814;SDS011;16708;50.426;7.664;2023-09-19T02:05:07;4.90;;;2.00;;
29814;SDS011;16708;50.426;7.664;2023-09-19T02:10:01;7.30;;;1.90;;
29814;SDS011;16708;50.426;7.664;2023-09-19T02:14:55;8.80;;;2.30;;
29814;SDS011;16708;50.426;7.664;2023-09-19T02:19:49;5.40;;;2.40;;
29814;SDS011;16708;50.426;7.664;2023-09-19T02:24:44;4.90;;;2.30;;
29814;SDS011;16708;50.426;7.664;2023-09-19T02:29:38;6.30;;;2.50;;
29814;SDS011;16708;50.426;7.664;2023-09-19T02:34:33;8.40;;;2.80;;
29814;SDS011;16708;50.426;7.664;2023-09-19T02:39:27;7.70;;;3.00;;
29814;SDS011;16708;50.426;7.664;2023-09-19T02:44:22;7.00;;;2.80;;
29814;SDS011;16708;50.426;7.664;2023-09-19T02:49:19;9.30;;;3.00;;
29814;SDS011;16708;50.426;7.664;2023-09-19T02:54:11;6.80;;;2.50;;
29814;SDS011;16708;50.426;7.664;2023-09-19T02:59:03;7.80;;;2.60;;
29814;SDS011;16708;50.426;7.664;2023-09-19T03:03:58;6.00;;;2.70;;
29814;SDS011;16708;50.426;7.664;2023-09-19T03:08:52;6.70;;;2.50;;
29814;SDS011;16708;50.426;7.664;2023-09-19T03:13:47;8.20;;;2.20;;
29814;SDS011;16708;50.426;7.664;2023-09-19T03:18:42;8.30;;;2.40;;
29814;SDS011;16708;50.426;7.664;2023-09-19T03:23:36;5.30;;;2.10;;
29814;SDS011;16708;50.426;7.664;2023-09-19T03:28:30;5.20;;;2.20;;
29814;SDS011;16708;50.426;7.664;2023-09-19T03:33:24;7.90;;;2.00;;
29814;SDS011;16708;50.426;7.664;2023-09-19T03:38:19;5.40;;;2.40;;
29814;SDS011;16708;50.426;7.664;2023-09-19T03:43:13;8.30;;;2.60;;
29814;SDS011;16708;50.426;7.664;2023-09-19T03:48:07;12.20;;;2.80;;
29814;SDS011;16708;50.426;7.664;2023-09-19T03:53:01;9.80;;;3.00;;
29814;SDS011;16708;50.426;7.664;2023-09-19T03:57:54;7.20;;;3.10;;
29814;SDS011;16708;50.426;7.664;2023-09-19T04:02:49;8.40;;;3.30;;
29814;SDS011;16708;50.426;7.664;2023-09-19T04:07:41;8.80;;;3.40;;
29814;SDS011;16708;50.426;7.664;2023-09-19T04:12:35;9.70;;;2.80;;
29814;SDS011;16708;50.426;7.664;2023-09-19T04:17:30;11.50;;;3.10;;
29814;SDS011;16708;50.426;7.664;2023-09-19T04:22:24;9.20;;;2.50;;
29814;SDS011;16708;50.426;7.664;2023-09-19T04:27:19;9.20;;;2.10;;
29814;SDS011;16708;50.426;7.664;2023-09-19T04:32:13;9.00;;;2.10;;
29814;SDS011;16708;50.426;7.664;2023-09-19T04:37:07;8.10;;;2.00;;
29814;SDS011;16708;50.426;7.664;2023-09-19T04:42:01;9.20;;;2.40;;
29814;SDS011;16708;50.426;7.664;2023-09-19T04:46:56;12.00;;;2.30;;
29814;SDS011;16708;50.426;7.664;2023-09-19T04:51:51;9.50;;;2.70;;
29814;SDS011;16708;50.426;7.664;2023-09-19T04:56:45;7.80;;;3.00;;
29814;SDS011;16708;50.426;7.664;2023-09-19T05:01:40;10.80;;;3.00;;
29814;SDS011;16708;50.426;7.664;2023-09-19T05:06:34;7.50;;;2.70;;
29814;SDS011;16708;50.426;7.664;2023-09-19T05:11:28;12.20;;;2.60;;
29814;SDS011;16708;50.426;7.664;2023-09-19T05:16:24;9.10;;;2.70;;
29814;SDS011;16708;50.426;7.664;2023-09-19T05:21:18;6.80;;;2.40;;
29814;SDS011;16708;50.426;7.664;2023-09-19T05:26:12;11.10;;;2.80;;
29814;SDS011;16708;50.426;7.664;2023-09-19T05:31:07;7.30;;;2.30;;
29814;SDS011;16708;50.426;7.664;2023-09-19T05:36:00;10.50;;;2.50;;
29814;SDS011;16708;50.426;7.664;2023-09-19T05:40:54;9.30;;;2.80;;
29814;SDS011;16708;50.426;7.664;2023-09-19T05:45:48;8.40;;;2.50;;
29814;SDS011;16708;50.426;7.664;2023-09-19T05:50:42;7.60;;;2.70;;
29814;SDS011;16708;50.426;7.664;2023-09-19T05:55:37;9.90;;;2.90;;
29814;SDS011;16708;50.426;7.664;2023-09-19T06:00:31;7.40;;;2.40;;
29814;SDS011;16708;50.426;7.664;2023-09-19T06:05:21;8.90;;;2.70;;
29814;SDS011;16708;50.426;7.664;2023-09-19T06:10:16;9.50;;;2.60;;
29814;SDS011;16708;50.426;7.664;2023-09-19T06:15:10;11.20;;;2.50;;
29814;SDS011;16708;50.426;7.664;2023-09-19T06:20:04;8.50;;;2.70;;
29814;SDS011;16708;50.426;7.664;2023-09-19T06:24:58;8.80;;;2.50;;
29814;SDS011;16708;50.426;7.664;2023-09-19T06:29:53;6.50;;;2.50;;
29814;SDS011;16708;50.426;7.664;2023-09-19T06:34:48;9.70;;;2.70;;
29814;SDS011;16708;50.426;7.664;2023-09-19T06:39:42;8.80;;;2.00;;
29814;SDS011;16708;50.426;7.664;2023-09-19T06:44:36;9.70;;;2.20;;
29814;SDS011;16708;50.426;7.664;2023-09-19T06:49:31;11.00;;;2.10;;
29814;SDS011;16708;50.426;7.664;2023-09-19T06:54:26;9.50;;;2.20;;
29814;SDS011;16708;50.426;7.664;2023-09-19T06:59:20;11.30;;;2.20;;
29814;SDS011;16708;50.426;7.664;2023-09-19T07:04:15;8.30;;;2.50;;
29814;SDS011;16708;50.426;7.664;2023-09-19T07:09:09;10.30;;;2.10;;
29814;SDS011;16708;50.426;7.664;2023-09-19T07:14:03;11.50;;;2.00;;
29814;SDS011;16708;50.426;7.664;2023-09-19T07:18:58;10.00;;;1.90;;
29814;SDS011;16708;50.426;7.664;2023-09-19T07:23:52;10.80;;;2.40;;
29814;SDS011;16708;50.426;7.664;2023-09-19T07:28:46;12.80;;;2.10;;
29814;SDS011;16708;50.426;7.664;2023-09-19T07:33:41;10.00;;;1.70;;
29814;SDS011;16708;50.426;7.664;2023-09-19T07:38:35;9.40;;;1.90;;
29814;SDS011;16708;50.426;7.664;2023-09-19T07:43:31;10.60;;;2.10;;
29814;SDS011;16708;50.426;7.664;2023-09-19T07:48:25;11.00;;;1.90;;
29814;SDS011;16708;50.426;7.664;2023-09-19T07:53:19;9.90;;;1.80;;
29814;SDS011;16708;50.426;7.664;2023-09-19T07:58:14;11.10;;;2.00;;
29814;SDS011;16708;50.426;7.664;2023-09-19T08:03:08;9.70;;;1.80;;
29814;SDS011;16708;50.426;7.664;2023-09-19T08:08:02;5.50;;;1.50;;
29814;SDS011;16708;50.426;7.664;2023-09-19T08:12:57;9.00;;;1.80;;
29814;SDS011;16708;50.426;7.664;2023-09-19T08:17:52;7.40;;;1.70;;
29814;SDS011;16708;50.426;7.664;2023-09-19T08:22:47;8.50;;;1.70;;
29814;SDS011;16708;50.426;7.664;2023-09-19T08:27:41;9.60;;;2.10;;
29814;SDS011;16708;50.426;7.664;2023-09-19T08:32:35;5.80;;;1.50;;
29814;SDS011;16708;50.426;7.664;2023-09-19T08:37:30;6.40;;;1.60;;
29814;SDS011;16708;50.426;7.664;2023-09-19T08:42:24;8.00;;;1.90;;
29814;SDS011;16708;50.426;7.664;2023-09-19T08:47:19;6.30;;;1.50;;
29814;SDS011;16708;50.426;7.664;2023-09-19T08:52:13;9.20;;;1.90;;
29814;SDS011;16708;50.426;7.664;2023-09-19T08:57:09;8.10;;;2.00;;
29814;SDS011;16708;50.426;7.664;2023-09-19T09:02:03;12.80;;;2.70;;
29814;SDS011;16708;50.426;7.664;2023-09-19T09:06:57;8.40;;;1.80;;
29814;SDS011;16708;50.426;7.664;2023-09-19T09:11:52;10.40;;;2.10;;
29814;SDS011;16708;50.426;7.664;2023-09-19T09:16:47;10.70;;;2.00;;
29814;SDS011;16708;50.426;7.664;2023-09-19T09:21:44;7.80;;;1.70;;
29814;SDS011;16708;50.426;7.664;2023-09-19T09:26:37;14.00;;;2.20;;
29814;SDS011;16708;50.426;7.664;2023-09-19T09:31:33;9.20;;;1.90;;
29814;SDS011;16708;50.426;7.664;2023-09-19T09:36:25;8.30;;;1.70;;
29814;SDS011;16708;50.426;7.664;2023-09-19T09:46:15;7.50;;;1.70;;
29814;SDS011;16708;50.426;7.664;2023-09-19T09:51:08;8.30;;;1.90;;
29814;SDS011;16708;50.426;7.664;2023-09-19T09:56:02;9.30;;;1.70;;
29814;SDS011;16708;50.426;7.664;2023-09-19T10:05:51;9.00;;;1.80;;
29814;SDS011;16708;50.426;7.664;2023-09-19T10:10:46;7.30;;;1.80;;
29814;SDS011;16708;50.426;7.664;2023-09-19T10:15:40;9.40;;;2.10;;
29814;SDS011;16708;50.426;7.664;2023-09-19T10:20:33;8.00;;;1.70;;
29814;SDS011;16708;50.426;7.664;2023-09-19T10:25:29;6.70;;;1.70;;
29814;SDS011;16708;50.426;7.664;2023-09-19T10:30:24;6.90;;;2.00;;
29814;SDS011;16708;50.426;7.664;2023-09-19T10:35:18;6.90;;;1.80;;
29814;SDS011;16708;50.426;7.664;2023-09-19T10:40:13;8.20;;;2.00;;
29814;SDS011;16708;50.426;7.664;2023-09-19T10:45:04;6.30;;;1.90;;
29814;SDS011;16708;50.426;7.664;2023-09-19T10:49:58;5.70;;;1.80;;
29814;SDS011;16708;50.426;7.664;2023-09-19T10:54:52;6.50;;;1.80;;
29814;SDS011;16708;50.426;7.664;2023-09-19T10:59:47;6.50;;;1.60;;
29814;SDS011;16708;50.426;7.664;2023-09-19T11:09:33;6.70;;;1.70;;
29814;SDS011;16708;50.426;7.664;2023-09-19T11:14:28;4.50;;;1.70;;
29814;SDS011;16708;50.426;7.664;2023-09-19T11:39:01;8.40;;;2.00;;
29814;SDS011;16708;50.426;7.664;2023-09-19T11:43:57;6.00;;;1.80;;
29814;SDS011;16708;50.426;7.664;2023-09-19T11:48:51;5.90;;;1.90;;
29814;SDS011;16708;50.426;7.664;2023-09-19T11:53:46;5.70;;;1.90;;
29814;SDS011;16708;50.426;7.664;2023-09-19T11:58:39;6.70;;;1.90;;
29814;SDS011;16708;50.426;7.664;2023-09-19T12:03:33;7.20;;;1.70;;
29814;SDS011;16708;50.426;7.664;2023-09-19T12:08:28;6.40;;;1.80;;
29814;SDS011;16708;50.426;7.664;2023-09-19T12:13:23;6.10;;;1.50;;
29814;SDS011;16708;50.426;7.664;2023-09-19T12:18:18;5.60;;;1.60;;
29814;SDS011;16708;50.426;7.664;2023-09-19T12:23:11;8.80;;;1.70;;
29814;SDS011;16708;50.426;7.664;2023-09-19T12:28:05;7.70;;;1.70;;
29814;SDS011;16708;50.426;7.664;2023-09-19T12:32:57;8.50;;;1.80;;
29814;SDS011;16708;50.426;7.664;2023-09-19T12:42:46;4.20;;;1.70;;
29814;SDS011;16708;50.426;7.664;2023-09-19T12:52:35;5.30;;;1.50;;
29814;SDS011;16708;50.426;7.664;2023-09-19T12:57:30;3.10;;;1.50;;
29814;SDS011;16708;50.426;7.664;2023-09-19T13:02:25;4.90;;;1.60;;
29814;SDS011;16708;50.426;7.664;2023-09-19T13:07:20;5.00;;;1.60;;
29814;SDS011;16708;50.426;7.664;2023-09-19T13:17:09;4.40;;;1.50;;
29814;SDS011;16708;50.426;7.664;2023-09-19T13:22:03;5.70;;;1.50;;
29814;SDS011;16708;50.426;7.664;2023-09-19T13:26:58;6.20;;;1.50;;
29814;SDS011;16708;50.426;7.664;2023-09-19T13:31:50;4.10;;;1.40;;
29814;SDS011;16708;50.426;7.664;2023-09-19T13:36:45;6.00;;;1.60;;
29814;SDS011;16708;50.426;7.664;2023-09-19T13:41:38;3.90;;;1.50;;
29814;SDS011;16708;50.426;7.664;2023-09-19T13:46:33;3.70;;;1.20;;
29814;SDS011;16708;50.426;7.664;2023-09-19T13:51:28;3.90;;;1.20;;
29814;SDS011;16708;50.426;7.664;2023-09-19T13:56:22;4.80;;;1.40;;
29814;SDS011;16708;50.426;7.664;2023-09-19T14:01:16;5.20;;;1.50;;
29814;SDS011;16708;50.426;7.664;2023-09-19T14:06:12;3.50;;;1.60;;
29814;SDS011;16708;50.426;7.664;2023-09-19T14:11:06;5.90;;;1.50;;
29814;SDS011;16708;50.426;7.664;2023-09-19T14:16:00;6.80;;;1.50;;
29814;SDS011;16708;50.426;7.664;2023-09-19T14:20:54;3.70;;;1.40;;
29814;SDS011;16708;50.426;7.664;2023-09-19T14:25:48;4.60;;;1.80;;
29814;SDS011;16708;50.426;7.664;2023-09-19T14:30:43;4.10;;;1.50;;
29814;SDS011;16708;50.426;7.664;2023-09-19T14:35:38;4.30;;;1.60;;
29814;SDS011;16708;50.426;7.664;2023-09-19T14:40:32;4.10;;;1.40;;
29814;SDS011;16708;50.426;7.664;2023-09-19T14:45:26;3.60;;;1.40;;
29814;SDS011;16708;50.426;7.664;2023-09-19T14:50:20;3.80;;;1.40;;
29814;SDS011;16708;50.426;7.664;2023-09-19T14:55:14;3.20;;;1.40;;
29814;SDS011;16708;50.426;7.664;2023-09-19T15:00:08;3.20;;;1.50;;
29814;SDS011;16708;50.426;7.664;2023-09-19T15:05:03;4.30;;;1.60;;
29814;SDS011;16708;50.426;7.664;2023-09-19T15:09:56;5.20;;;1.80;;
29814;SDS011;16708;50.426;7.664;2023-09-19T15:14:50;4.90;;;1.70;;
29814;SDS011;16708;50.426;7.664;2023-09-19T15:19:44;3.50;;;1.40;;
29814;SDS011;16708;50.426;7.664;2023-09-19T15:24:38;4.60;;;1.40;;
29814;SDS011;16708;50.426;7.664;2023-09-19T15:29:35;4.40;;;1.40;;
29814;SDS011;16708;50.426;7.664;2023-09-19T15:34:28;3.10;;;1.30;;
29814;SDS011;16708;50.426;7.664;2023-09-19T15:39:21;4.60;;;1.30;;
29814;SDS011;16708;50.426;7.664;2023-09-19T15:44:15;5.60;;;1.40;;
29814;SDS011;16708;50.426;7.664;2023-09-19T15:49:08;3.00;;;1.40;;
29814;SDS011;16708;50.426;7.664;2023-09-19T15:54:04;3.60;;;1.30;;
29814;SDS011;16708;50.426;7.664;2023-09-19T15:58:59;2.50;;;1.10;;
29814;SDS011;16708;50.426;7.664;2023-09-19T16:03:54;3.30;;;1.40;;
29814;SDS011;16708;50.426;7.664;2023-09-19T16:08:48;4.80;;;1.50;;
29814;SDS011;16708;50.426;7.664;2023-09-19T16:13:42;5.00;;;1.30;;
29814;SDS011;16708;50.426;7.664;2023-09-19T16:18:35;5.60;;;1.40;;
29814;SDS011;16708;50.426;7.664;2023-09-19T16:23:29;3.00;;;1.30;;
29814;SDS011;16708;50.426;7.664;2023-09-19T16:28:22;5.10;;;1.20;;
29814;SDS011;16708;50.426;7.664;2023-09-19T16:33:16;3.80;;;1.00;;
29814;SDS011;16708;50.426;7.664;2023-09-19T16:38:10;5.30;;;1.30;;
29814;SDS011;16708;50.426;7.664;2023-09-19T16:43:05;4.80;;;1.10;;
29814;SDS011;16708;50.426;7.664;2023-09-19T16:47:59;4.40;;;1.10;;
29814;SDS011;16708;50.426;7.664;2023-09-19T16:52:53;3.20;;;1.10;;
29814;SDS011;16708;50.426;7.664;2023-09-19T16:57:48;3.90;;;1.00;;
29814;SDS011;16708;50.426;7.664;2023-09-19T17:02:42;7.10;;;1.20;;
29814;SDS011;16708;50.426;7.664;2023-09-19T17:07:36;5.70;;;1.30;;
29814;SDS011;16708;50.426;7.664;2023-09-19T17:12:31;3.80;;;1.10;;
29814;SDS011;16708;50.426;7.664;2023-09-19T17:17:26;6.40;;;1.00;;
29814;SDS011;16708;50.426;7.664;2023-09-19T17:22:20;3.20;;;0.90;;
29814;SDS011;16708;50.426;7.664;2023-09-19T17:27:14;2.90;;;1.00;;
29814;SDS011;16708;50.426;7.664;2023-09-19T17:32:08;2.60;;;0.90;;
29814;SDS011;16708;50.426;7.664;2023-09-19T17:37:02;3.50;;;0.90;;
29814;SDS011;16708;50.426;7.664;2023-09-19T17:41:55;5.30;;;1.00;;
29814;SDS011;16708;50.426;7.664;2023-09-19T17:46:50;4.60;;;1.10;;
29814;SDS011;16708;50.426;7.664;2023-09-19T17:51:46;3.40;;;1.00;;
29814;SDS011;16708;50.426;7.664;2023-09-19T17:56:39;4.40;;;0.90;;
29814;SDS011;16708;50.426;7.664;2023-09-19T18:01:33;5.40;;;1.00;;
29814;SDS011;16708;50.426;7.664;2023-09-19T18:06:27;3.60;;;1.40;;
29814;SDS011;16708;50.426;7.664;2023-09-19T18:11:22;5.10;;;1.30;;
29814;SDS011;16708;50.426;7.664;2023-09-19T18:16:16;3.50;;;1.10;;
29814;SDS011;16708;50.426;7.664;2023-09-19T18:21:09;2.20;;;0.90;;
29814;SDS011;16708;50.426;7.664;2023-09-19T18:26:04;4.50;;;1.10;;
29814;SDS011;16708;50.426;7.664;2023-09-19T18:30:59;4.00;;;0.80;;
29814;SDS011;16708;50.426;7.664;2023-09-19T18:35:53;4.30;;;1.00;;
29814;SDS011;16708;50.426;7.664;2023-09-19T18:40:47;3.90;;;1.00;;
29814;SDS011;16708;50.426;7.664;2023-09-19T18:45:42;3.10;;;0.90;;
29814;SDS011;16708;50.426;7.664;2023-09-19T18:50:36;4.10;;;1.10;;
29814;SDS011;16708;50.426;7.664;2023-09-19T18:55:30;2.90;;;1.20;;
29814;SDS011;16708;50.426;7.664;2023-09-19T19:00:24;4.40;;;1.50;;
29814;SDS011;16708;50.426;7.664;2023-09-19T19:05:19;1.70;;;0.90;;
29814;SDS011;16708;50.426;7.664;2023-09-19T19:10:12;4.00;;;1.00;;
29814;SDS011;16708;50.426;7.664;2023-09-19T19:15:06;3.60;;;1.20;;
29814;SDS011;16708;50.426;7.664;2023-09-19T19:20:00;4.30;;;1.00;;
29814;SDS011;16708;50.426;7.664;2023-09-19T19:24:55;3.80;;;1.20;;
29814;SDS011;16708;50.426;7.664;2023-09-19T19:29:49;4.90;;;1.00;;
29814;SDS011;16708;50.426;7.664;2023-09-19T19:34:43;4.70;;;1.00;;
29814;SDS011;16708;50.426;7.664;2023-09-19T19:39:37;2.80;;;1.00;;
29814;SDS011;16708;50.426;7.664;2023-09-19T19:44:32;3.00;;;1.00;;
29814;SDS011;16708;50.426;7.664;2023-09-19T19:49:26;3.60;;;0.90;;
29814;SDS011;16708;50.426;7.664;2023-09-19T19:54:21;4.40;;;1.20;;
29814;SDS011;16708;50.426;7.664;2023-09-19T19:59:15;5.90;;;1.10;;
29814;SDS011;16708;50.426;7.664;2023-09-19T20:04:09;2.50;;;1.20;;
29814;SDS011;16708;50.426;7.664;2023-09-19T20:09:03;4.90;;;1.60;;
29814;SDS011;16708;50.426;7.664;2023-09-19T20:13:58;2.60;;;1.10;;
29814;SDS011;16708;50.426;7.664;2023-09-19T20:18:51;4.10;;;1.30;;
29814;SDS011;16708;50.426;7.664;2023-09-19T20:23:46;2.90;;;0.90;;
29814;SDS011;16708;50.426;7.664;2023-09-19T20:28:40;2.60;;;1.10;;
29814;SDS011;16708;50.426;7.664;2023-09-19T20:33:34;4.20;;;1.20;;
29814;SDS011;16708;50.426;7.664;2023-09-19T20:38:29;4.80;;;1.10;;
29814;SDS011;16708;50.426;7.664;2023-09-19T20:43:23;3.70;;;1.20;;
29814;SDS011;16708;50.426;7.664;2023-09-19T20:48:18;4.90;;;1.20;;
29814;SDS011;16708;50.426;7.664;2023-09-19T20:53:12;3.80;;;1.20;;
29814;SDS011;16708;50.426;7.664;2023-09-19T20:58:06;5.10;;;1.40;;
29814;SDS011;16708;50.426;7.664;2023-09-19T21:03:00;6.10;;;1.30;;
29814;SDS011;16708;50.426;7.664;2023-09-19T21:07:55;3.30;;;1.30;;
29814;SDS011;16708;50.426;7.664;2023-09-19T21:12:47;3.60;;;1.20;;
29814;SDS011;16708;50.426;7.664;2023-09-19T21:17:45;4.80;;;1.40;;
29814;SDS011;16708;50.426;7.664;2023-09-19T21:22:36;3.30;;;1.30;;
29814;SDS011;16708;50.426;7.664;2023-09-19T21:27:30;5.60;;;1.60;;
29814;SDS011;16708;50.426;7.664;2023-09-19T21:32:24;4.20;;;1.50;;
29814;SDS011;16708;50.426;7.664;2023-09-19T21:37:18;6.20;;;1.50;;
29814;SDS011;16708;50.426;7.664;2023-09-19T21:42:13;3.40;;;1.40;;
29814;SDS011;16708;50.426;7.664;2023-09-19T21:47:06;3.80;;;1.30;;
29814;SDS011;16708;50.426;7.664;2023-09-19T21:52:00;4.50;;;1.50;;
29814;SDS011;16708;50.426;7.664;2023-09-19T21:56:54;4.00;;;1.30;;
29814;SDS011;16708;50.426;7.664;2023-09-19T22:01:49;6.20;;;1.40;;
29814;SDS011;16708;50.426;7.664;2023-09-19T22:06:43;4.00;;;1.50;;
29814;SDS011;16708;50.426;7.664;2023-09-19T22:11:38;4.00;;;1.30;;
29814;SDS011;16708;50.426;7.664;2023-09-19T22:16:32;3.20;;;1.30;;
29814;SDS011;16708;50.426;7.664;2023-09-19T22:21:27;4.00;;;1.50;;
29814;SDS011;16708;50.426;7.664;2023-09-19T22:26:21;3.80;;;1.40;;
29814;SDS011;16708;50.426;7.664;2023-09-19T22:31:15;5.70;;;1.60;;
29814;SDS011;16708;50.426;7.664;2023-09-19T22:36:10;4.90;;;1.50;;
29814;SDS011;16708;50.426;7.664;2023-09-19T22:41:05;5.60;;;1.60;;
29814;SDS011;16708;50.426;7.664;2023-09-19T22:46:01;5.60;;;1.60;;
29814;SDS011;16708;50.426;7.664;2023-09-19T22:50:54;8.00;;;1.70;;
29814;SDS011;16708;50.426;7.664;2023-09-19T22:55:48;4.50;;;1.60;;
29814;SDS011;16708;50.426;7.664;2023-09-19T23:00:43;8.00;;;1.50;;
29814;SDS011;16708;50.426;7.664;2023-09-19T23:05:37;6.90;;;1.90;;
29814;SDS011;16708;50.426;7.664;2023-09-19T23:10:31;4.50;;;1.40;;
29814;SDS011;16708;50.426;7.664;2023-09-19T23:15:25;6.40;;;1.50;;
29814;SDS011;16708;50.426;7.664;2023-09-19T23:20:20;3.00;;;1.40;;
29814;SDS011;16708;50.426;7.664;2023-09-19T23:25:13;5.00;;;1.50;;
29814;SDS011;16708;50.426;7.664;2023-09-19T23:30:07;5.20;;;1.50;;
29814;SDS011;16708;50.426;7.664;2023-09-19T23:35:02;5.20;;;1.50;;
29814;SDS011;16708;50.426;7.664;2023-09-19T23:39:56;5.30;;;1.50;;
29814;SDS011;16708;50.426;7.664;2023-09-19T23:44:51;6.10;;;1.60;;
29814;SDS011;16708;50.426;7.664;2023-09-19T23:49:46;3.40;;;1.60;;
29814;SDS011;16708;50.426;7.664;2023-09-19T23:54:35;5.70;;;1.70;;
29814;SDS011;16708;50.426;7.664;2023-09-19T23:59:28;3.40;;;1.20;;
